createdAt,value
2022-10-06T00:07:13.437Z,1014.60
2022-10-06T00:22:13.278Z,1014.63
2022-10-06T00:37:13.363Z,1014.79
2022-10-06T00:52:14.062Z,1014.82
2022-10-06T01:07:14.098Z,1014.94
2022-10-06T01:22:14.779Z,1015.08
2022-10-06T01:37:15.283Z,1015.18
2022-10-06T01:52:15.412Z,1015.26
2022-10-06T02:07:15.486Z,1015.36
2022-10-06T02:22:15.607Z,1015.33
2022-10-06T02:37:16.244Z,1015.49
2022-10-06T02:52:16.347Z,1015.68
2022-10-06T03:07:16.443Z,1016.06
2022-10-06T03:22:16.576Z,1016.42
2022-10-06T03:37:16.650Z,1016.70
2022-10-06T03:52:16.783Z,1016.98
2022-10-06T04:07:17.621Z,1017.58
2022-10-06T04:22:19.180Z,1017.45
2022-10-06T04:37:19.050Z,1017.95
2022-10-06T04:52:19.401Z,1018.22
2022-10-06T05:07:19.319Z,1018.51
2022-10-06T05:22:19.454Z,1019.01
2022-10-06T05:37:19.545Z,1019.46
2022-10-06T05:52:19.671Z,1019.96
2022-10-06T06:07:19.762Z,1020.28
2022-10-06T06:22:19.846Z,1020.71
2022-10-06T06:37:20.372Z,1021.11
2022-10-06T06:52:20.337Z,1021.37
2022-10-06T07:07:20.319Z,1021.62
2022-10-06T07:22:20.402Z,1021.89
2022-10-06T07:37:20.740Z,1022.24
2022-10-06T07:52:20.760Z,1022.49
2022-10-06T08:07:20.819Z,1022.74
2022-10-06T08:22:20.933Z,1023.05
2022-10-06T08:37:21.374Z,1023.22
2022-10-06T08:52:21.342Z,1023.46
2022-10-06T09:07:21.342Z,1023.58
2022-10-06T09:22:21.465Z,1023.85
2022-10-06T09:37:21.765Z,1023.82
2022-10-06T09:52:22.106Z,1024.08
2022-10-06T10:07:21.983Z,1024.29
2022-10-06T10:22:22.083Z,1024.51
2022-10-06T10:37:22.427Z,1024.64
2022-10-06T10:52:22.483Z,1024.72
2022-10-06T11:07:26.572Z,1024.76
2022-10-06T11:22:27.123Z,1024.83
2022-10-06T11:37:27.766Z,1024.97
2022-10-06T11:52:27.836Z,1025.04
2022-10-06T12:07:27.934Z,1024.97
2022-10-06T12:22:28.045Z,1025.05
2022-10-06T12:37:28.184Z,1025.26
2022-10-06T12:52:28.333Z,1025.25
2022-10-06T13:07:28.476Z,1025.26
2022-10-06T13:22:29.049Z,1025.28
2022-10-06T13:37:29.119Z,1025.47
2022-10-06T13:52:29.380Z,1025.50
2022-10-06T14:07:29.406Z,1025.56
2022-10-06T14:22:29.377Z,1025.52
2022-10-06T14:37:30.823Z,1025.65
2022-10-06T14:52:31.104Z,1025.72
2022-10-06T15:07:31.019Z,1025.60
2022-10-06T15:22:31.123Z,1025.73
2022-10-06T15:37:32.365Z,1025.72
2022-10-06T15:52:32.363Z,1025.78
2022-10-06T16:07:32.425Z,1025.85
2022-10-06T16:22:32.514Z,1025.99
2022-10-06T16:37:33.156Z,1026.03
2022-10-06T16:52:33.188Z,1026.28
2022-10-06T17:07:33.286Z,1026.38
2022-10-06T17:22:33.456Z,1026.43
2022-10-06T17:37:33.534Z,1026.49
2022-10-06T17:52:34.130Z,1026.46
2022-10-06T18:07:34.250Z,1026.54
2022-10-06T18:22:34.339Z,1026.54
2022-10-06T18:37:34.495Z,1026.64
2022-10-06T18:52:34.602Z,1026.70
2022-10-06T19:07:34.748Z,1026.75
2022-10-06T19:22:34.823Z,1026.76
2022-10-06T19:37:34.995Z,1026.89
2022-10-06T19:52:35.062Z,1026.97
2022-10-06T20:07:35.183Z,1026.97
2022-10-06T20:22:35.304Z,1027.03
2022-10-06T20:37:35.559Z,1027.13
2022-10-06T20:52:35.539Z,1027.17
2022-10-06T21:07:35.679Z,1027.22
2022-10-06T21:22:35.831Z,1027.07
2022-10-06T21:37:35.944Z,1027.04
2022-10-06T21:52:36.577Z,1027.04
2022-10-06T22:07:36.724Z,1026.88
2022-10-06T22:22:37.361Z,1026.82
2022-10-06T22:37:38.014Z,1026.88
2022-10-06T22:52:38.051Z,1026.74
2022-10-06T23:07:38.267Z,1026.59
2022-10-06T23:22:38.791Z,1026.51
2022-10-06T23:37:38.976Z,1026.57
2022-10-06T23:52:39.024Z,1026.56
